sensor_id;sensor_type;location;lat;lon;timestamp;P1;durP1;ratioP1;P2;durP2;ratioP2
6269;SDS011;3168;51.684;6.954;2023-02-15T00:01:35;6.03;;;4.60;;
6269;SDS011;3168;51.684;6.954;2023-02-15T00:04:01;6.93;;;6.27;;
6269;SDS011;3168;51.684;6.954;2023-02-15T00:06:27;5.93;;;4.50;;
6269;SDS011;3168;51.684;6.954;2023-02-15T00:08:53;5.30;;;4.77;;
6269;SDS011;3168;51.684;6.954;2023-02-15T00:11:18;3.30;;;2.20;;
6269;SDS011;3168;51.684;6.954;2023-02-15T00:13:45;4.47;;;4.23;;
6269;SDS011;3168;51.684;6.954;2023-02-15T00:16:11;6.45;;;4.82;;
6269;SDS011;3168;51.684;6.954;2023-02-15T00:18:37;4.90;;;4.50;;
6269;SDS011;3168;51.684;6.954;2023-02-15T00:21:03;3.37;;;3.17;;
6269;SDS011;3168;51.684;6.954;2023-02-15T00:23:28;5.20;;;4.70;;
6269;SDS011;3168;51.684;6.954;2023-02-15T00:28:35;6.03;;;4.87;;
6269;SDS011;3168;51.684;6.954;2023-02-15T00:31:03;4.43;;;4.00;;
6269;SDS011;3168;51.684;6.954;2023-02-15T00:33:28;6.13;;;5.50;;
6269;SDS011;3168;51.684;6.954;2023-02-15T00:35:57;7.13;;;4.37;;
6269;SDS011;3168;51.684;6.954;2023-02-15T00:38:25;5.60;;;3.10;;
6269;SDS011;3168;51.684;6.954;2023-02-15T00:40:52;6.03;;;5.17;;
6269;SDS011;3168;51.684;6.954;2023-02-15T00:43:17;3.40;;;3.20;;
6269;SDS011;3168;51.684;6.954;2023-02-15T00:45:44;5.53;;;5.10;;
6269;SDS011;3168;51.684;6.954;2023-02-15T00:48:09;5.67;;;3.87;;
6269;SDS011;3168;51.684;6.954;2023-02-15T00:50:34;4.60;;;4.27;;
6269;SDS011;3168;51.684;6.954;2023-02-15T00:53:00;4.07;;;3.77;;
6269;SDS011;3168;51.684;6.954;2023-02-15T00:55:26;5.50;;;4.77;;
6269;SDS011;3168;51.684;6.954;2023-02-15T00:57:52;5.27;;;4.70;;
6269;SDS011;3168;51.684;6.954;2023-02-15T01:00:18;5.63;;;4.87;;
6269;SDS011;3168;51.684;6.954;2023-02-15T01:02:44;6.90;;;6.20;;
6269;SDS011;3168;51.684;6.954;2023-02-15T01:05:09;6.10;;;5.50;;
6269;SDS011;3168;51.684;6.954;2023-02-15T01:07:35;8.17;;;4.90;;
6269;SDS011;3168;51.684;6.954;2023-02-15T01:10:01;32.37;;;3.80;;
6269;SDS011;3168;51.684;6.954;2023-02-15T01:12:27;4.90;;;4.33;;
6269;SDS011;3168;51.684;6.954;2023-02-15T01:14:53;5.77;;;3.83;;
6269;SDS011;3168;51.684;6.954;2023-02-15T01:17:19;4.60;;;4.07;;
6269;SDS011;3168;51.684;6.954;2023-02-15T01:19:45;4.53;;;4.13;;
6269;SDS011;3168;51.684;6.954;2023-02-15T01:22:11;12.43;;;4.07;;
6269;SDS011;3168;51.684;6.954;2023-02-15T01:24:37;5.00;;;3.40;;
6269;SDS011;3168;51.684;6.954;2023-02-15T01:27:02;7.10;;;6.03;;
6269;SDS011;3168;51.684;6.954;2023-02-15T01:29:28;13.67;;;6.93;;
6269;SDS011;3168;51.684;6.954;2023-02-15T01:31:54;5.93;;;3.93;;
6269;SDS011;3168;51.684;6.954;2023-02-15T01:34:20;7.57;;;3.50;;
6269;SDS011;3168;51.684;6.954;2023-02-15T01:36:46;3.37;;;3.27;;
6269;SDS011;3168;51.684;6.954;2023-02-15T01:39:11;2.60;;;2.50;;
6269;SDS011;3168;51.684;6.954;2023-02-15T01:41:37;12.67;;;4.90;;
6269;SDS011;3168;51.684;6.954;2023-02-15T01:44:03;11.87;;;6.10;;
6269;SDS011;3168;51.684;6.954;2023-02-15T01:46:33;8.13;;;4.07;;
6269;SDS011;3168;51.684;6.954;2023-02-15T01:49:01;6.83;;;3.10;;
6269;SDS011;3168;51.684;6.954;2023-02-15T01:51:26;6.70;;;2.93;;
6269;SDS011;3168;51.684;6.954;2023-02-15T01:53:54;4.33;;;4.03;;
6269;SDS011;3168;51.684;6.954;2023-02-15T01:56:23;5.73;;;2.83;;
6269;SDS011;3168;51.684;6.954;2023-02-15T01:58:49;6.17;;;3.97;;
6269;SDS011;3168;51.684;6.954;2023-02-15T02:01:14;12.80;;;7.07;;
6269;SDS011;3168;51.684;6.954;2023-02-15T02:03:49;5.60;;;3.47;;
6269;SDS011;3168;51.684;6.954;2023-02-15T02:06:24;4.50;;;4.10;;
6269;SDS011;3168;51.684;6.954;2023-02-15T02:08:50;9.70;;;5.87;;
6269;SDS011;3168;51.684;6.954;2023-02-15T02:11:15;7.70;;;4.57;;
6269;SDS011;3168;51.684;6.954;2023-02-15T02:13:42;4.23;;;3.93;;
6269;SDS011;3168;51.684;6.954;2023-02-15T02:16:12;14.23;;;5.18;;
6269;SDS011;3168;51.684;6.954;2023-02-15T02:18:47;6.70;;;3.73;;
6269;SDS011;3168;51.684;6.954;2023-02-15T02:21:28;4.80;;;4.40;;
6269;SDS011;3168;51.684;6.954;2023-02-15T02:26:47;4.13;;;3.90;;
6269;SDS011;3168;51.684;6.954;2023-02-15T02:29:30;5.07;;;4.60;;
6269;SDS011;3168;51.684;6.954;2023-02-15T02:32:04;5.30;;;4.10;;
6269;SDS011;3168;51.684;6.954;2023-02-15T02:34:45;8.23;;;4.37;;
6269;SDS011;3168;51.684;6.954;2023-02-15T02:37:23;17.80;;;5.57;;
6269;SDS011;3168;51.684;6.954;2023-02-15T02:39:52;7.20;;;4.50;;
6269;SDS011;3168;51.684;6.954;2023-02-15T02:42:27;5.43;;;4.50;;
6269;SDS011;3168;51.684;6.954;2023-02-15T02:44:54;6.70;;;5.40;;
6269;SDS011;3168;51.684;6.954;2023-02-15T02:47:20;6.37;;;5.30;;
6269;SDS011;3168;51.684;6.954;2023-02-15T02:49:47;4.57;;;4.23;;
6269;SDS011;3168;51.684;6.954;2023-02-15T02:54:52;7.60;;;4.40;;
6269;SDS011;3168;51.684;6.954;2023-02-15T02:57:17;23.83;;;4.73;;
6269;SDS011;3168;51.684;6.954;2023-02-15T02:59:43;6.27;;;5.87;;
6269;SDS011;3168;51.684;6.954;2023-02-15T03:02:11;4.23;;;3.70;;
6269;SDS011;3168;51.684;6.954;2023-02-15T03:04:37;5.90;;;5.40;;
6269;SDS011;3168;51.684;6.954;2023-02-15T03:07:04;7.33;;;5.33;;
6269;SDS011;3168;51.684;6.954;2023-02-15T03:09:29;7.67;;;6.90;;
6269;SDS011;3168;51.684;6.954;2023-02-15T03:11:55;4.93;;;3.90;;
6269;SDS011;3168;51.684;6.954;2023-02-15T03:14:21;7.57;;;6.07;;
6269;SDS011;3168;51.684;6.954;2023-02-15T03:16:47;14.43;;;4.90;;
6269;SDS011;3168;51.684;6.954;2023-02-15T03:19:14;5.03;;;4.10;;
6269;SDS011;3168;51.684;6.954;2023-02-15T03:21:42;4.93;;;3.37;;
6269;SDS011;3168;51.684;6.954;2023-02-15T03:24:10;4.73;;;4.40;;
6269;SDS011;3168;51.684;6.954;2023-02-15T03:26:35;4.87;;;4.50;;
6269;SDS011;3168;51.684;6.954;2023-02-15T03:29:01;8.00;;;5.00;;
6269;SDS011;3168;51.684;6.954;2023-02-15T03:31:28;9.07;;;5.63;;
6269;SDS011;3168;51.684;6.954;2023-02-15T03:33:54;8.50;;;7.00;;
6269;SDS011;3168;51.684;6.954;2023-02-15T03:36:22;5.23;;;4.73;;
6269;SDS011;3168;51.684;6.954;2023-02-15T03:38:49;6.27;;;5.50;;
6269;SDS011;3168;51.684;6.954;2023-02-15T03:41:15;5.80;;;5.20;;
6269;SDS011;3168;51.684;6.954;2023-02-15T03:43:44;10.90;;;5.20;;
6269;SDS011;3168;51.684;6.954;2023-02-15T03:46:17;4.30;;;4.00;;
6269;SDS011;3168;51.684;6.954;2023-02-15T03:48:40;6.67;;;4.17;;
6269;SDS011;3168;51.684;6.954;2023-02-15T03:51:08;4.73;;;3.77;;
6269;SDS011;3168;51.684;6.954;2023-02-15T03:53:38;3.13;;;2.97;;
6269;SDS011;3168;51.684;6.954;2023-02-15T03:56:03;5.80;;;5.33;;
6269;SDS011;3168;51.684;6.954;2023-02-15T03:58:29;4.80;;;4.23;;
6269;SDS011;3168;51.684;6.954;2023-02-15T04:01:04;13.77;;;3.70;;
6269;SDS011;3168;51.684;6.954;2023-02-15T04:03:37;2.93;;;2.60;;
6269;SDS011;3168;51.684;6.954;2023-02-15T04:06:02;3.90;;;3.60;;
6269;SDS011;3168;51.684;6.954;2023-02-15T04:08:28;3.63;;;3.23;;
6269;SDS011;3168;51.684;6.954;2023-02-15T04:11:00;14.17;;;5.40;;
6269;SDS011;3168;51.684;6.954;2023-02-15T04:13:30;5.47;;;4.97;;
6269;SDS011;3168;51.684;6.954;2023-02-15T04:15:54;10.43;;;4.20;;
6269;SDS011;3168;51.684;6.954;2023-02-15T04:18:26;8.90;;;5.37;;
6269;SDS011;3168;51.684;6.954;2023-02-15T04:20:58;9.00;;;4.40;;
6269;SDS011;3168;51.684;6.954;2023-02-15T04:23:30;5.97;;;3.93;;
6269;SDS011;3168;51.684;6.954;2023-02-15T04:26:03;5.87;;;4.17;;
6269;SDS011;3168;51.684;6.954;2023-02-15T04:28:28;4.40;;;4.10;;
6269;SDS011;3168;51.684;6.954;2023-02-15T04:30:54;6.87;;;4.47;;
6269;SDS011;3168;51.684;6.954;2023-02-15T04:33:19;9.57;;;7.03;;
6269;SDS011;3168;51.684;6.954;2023-02-15T04:35:45;9.23;;;6.47;;
6269;SDS011;3168;51.684;6.954;2023-02-15T04:38:11;9.17;;;4.17;;
6269;SDS011;3168;51.684;6.954;2023-02-15T04:40:37;4.70;;;4.27;;
6269;SDS011;3168;51.684;6.954;2023-02-15T04:43:03;3.40;;;3.30;;
6269;SDS011;3168;51.684;6.954;2023-02-15T04:45:29;5.27;;;4.77;;
6269;SDS011;3168;51.684;6.954;2023-02-15T04:47:54;9.47;;;5.40;;
6269;SDS011;3168;51.684;6.954;2023-02-15T04:50:20;4.70;;;3.43;;
6269;SDS011;3168;51.684;6.954;2023-02-15T04:52:46;20.23;;;3.90;;
6269;SDS011;3168;51.684;6.954;2023-02-15T04:55:12;5.00;;;4.63;;
6269;SDS011;3168;51.684;6.954;2023-02-15T04:57:38;4.93;;;4.00;;
6269;SDS011;3168;51.684;6.954;2023-02-15T05:00:04;4.10;;;3.90;;
6269;SDS011;3168;51.684;6.954;2023-02-15T05:02:31;17.03;;;5.50;;
6269;SDS011;3168;51.684;6.954;2023-02-15T05:04:56;12.10;;;6.57;;
6269;SDS011;3168;51.684;6.954;2023-02-15T05:07:22;5.37;;;4.90;;
6269;SDS011;3168;51.684;6.954;2023-02-15T05:09:48;2.70;;;2.50;;
6269;SDS011;3168;51.684;6.954;2023-02-15T05:12:14;13.20;;;5.87;;
6269;SDS011;3168;51.684;6.954;2023-02-15T05:14:39;5.27;;;4.60;;
6269;SDS011;3168;51.684;6.954;2023-02-15T05:17:05;2.43;;;2.33;;
6269;SDS011;3168;51.684;6.954;2023-02-15T05:19:31;4.28;;;3.47;;
6269;SDS011;3168;51.684;6.954;2023-02-15T05:21:57;5.70;;;4.60;;
6269;SDS011;3168;51.684;6.954;2023-02-15T05:24:23;5.40;;;4.90;;
6269;SDS011;3168;51.684;6.954;2023-02-15T05:26:55;5.43;;;4.83;;
6269;SDS011;3168;51.684;6.954;2023-02-15T05:29:26;11.63;;;3.40;;
6269;SDS011;3168;51.684;6.954;2023-02-15T05:31:52;4.60;;;4.30;;
6269;SDS011;3168;51.684;6.954;2023-02-15T05:34:19;5.40;;;3.83;;
6269;SDS011;3168;51.684;6.954;2023-02-15T05:36:44;9.27;;;4.33;;
6269;SDS011;3168;51.684;6.954;2023-02-15T05:39:10;6.40;;;5.23;;
6269;SDS011;3168;51.684;6.954;2023-02-15T05:41:37;11.67;;;6.03;;
6269;SDS011;3168;51.684;6.954;2023-02-15T05:44:02;4.23;;;2.30;;
6269;SDS011;3168;51.684;6.954;2023-02-15T05:46:29;7.83;;;6.00;;
6269;SDS011;3168;51.684;6.954;2023-02-15T05:48:55;4.90;;;3.90;;
6269;SDS011;3168;51.684;6.954;2023-02-15T05:51:21;3.70;;;3.47;;
6269;SDS011;3168;51.684;6.954;2023-02-15T05:53:48;10.50;;;5.03;;
6269;SDS011;3168;51.684;6.954;2023-02-15T05:56:13;7.13;;;3.40;;
6269;SDS011;3168;51.684;6.954;2023-02-15T05:58:40;8.17;;;5.10;;
6269;SDS011;3168;51.684;6.954;2023-02-15T06:01:11;5.60;;;4.57;;
6269;SDS011;3168;51.684;6.954;2023-02-15T06:03:37;9.27;;;6.23;;
6269;SDS011;3168;51.684;6.954;2023-02-15T06:06:02;2.53;;;2.27;;
6269;SDS011;3168;51.684;6.954;2023-02-15T06:08:28;9.70;;;5.10;;
6269;SDS011;3168;51.684;6.954;2023-02-15T06:10:54;4.40;;;3.93;;
6269;SDS011;3168;51.684;6.954;2023-02-15T06:13:20;6.27;;;2.67;;
6269;SDS011;3168;51.684;6.954;2023-02-15T06:15:46;8.73;;;5.50;;
6269;SDS011;3168;51.684;6.954;2023-02-15T06:18:11;5.37;;;4.90;;
6269;SDS011;3168;51.684;6.954;2023-02-15T06:20:37;20.67;;;5.63;;
6269;SDS011;3168;51.684;6.954;2023-02-15T06:23:03;5.47;;;3.93;;
6269;SDS011;3168;51.684;6.954;2023-02-15T06:25:29;6.40;;;4.53;;
6269;SDS011;3168;51.684;6.954;2023-02-15T06:27:55;2.93;;;2.87;;
6269;SDS011;3168;51.684;6.954;2023-02-15T06:30:21;2.70;;;2.60;;
6269;SDS011;3168;51.684;6.954;2023-02-15T06:32:47;3.50;;;3.30;;
6269;SDS011;3168;51.684;6.954;2023-02-15T06:35:12;8.50;;;3.83;;
6269;SDS011;3168;51.684;6.954;2023-02-15T06:37:38;13.93;;;6.00;;
6269;SDS011;3168;51.684;6.954;2023-02-15T06:40:04;10.13;;;4.10;;
6269;SDS011;3168;51.684;6.954;2023-02-15T06:42:31;9.43;;;5.17;;
6269;SDS011;3168;51.684;6.954;2023-02-15T06:44:57;9.30;;;4.13;;
6269;SDS011;3168;51.684;6.954;2023-02-15T06:47:23;5.10;;;4.70;;
6269;SDS011;3168;51.684;6.954;2023-02-15T06:49:48;5.63;;;5.13;;
6269;SDS011;3168;51.684;6.954;2023-02-15T06:52:14;5.50;;;4.93;;
6269;SDS011;3168;51.684;6.954;2023-02-15T06:54:40;4.90;;;4.10;;
6269;SDS011;3168;51.684;6.954;2023-02-15T06:57:06;7.70;;;3.37;;
6269;SDS011;3168;51.684;6.954;2023-02-15T06:59:31;5.77;;;3.90;;
6269;SDS011;3168;51.684;6.954;2023-02-15T07:01:57;4.27;;;3.97;;
6269;SDS011;3168;51.684;6.954;2023-02-15T07:04:23;6.60;;;5.20;;
6269;SDS011;3168;51.684;6.954;2023-02-15T07:06:49;6.53;;;4.50;;
6269;SDS011;3168;51.684;6.954;2023-02-15T07:09:15;3.20;;;3.00;;
6269;SDS011;3168;51.684;6.954;2023-02-15T07:11:41;9.33;;;4.07;;
6269;SDS011;3168;51.684;6.954;2023-02-15T07:14:12;17.80;;;6.27;;
6269;SDS011;3168;51.684;6.954;2023-02-15T07:16:38;5.23;;;4.73;;
6269;SDS011;3168;51.684;6.954;2023-02-15T07:19:05;13.30;;;4.77;;
6269;SDS011;3168;51.684;6.954;2023-02-15T07:21:30;4.28;;;3.95;;
6269;SDS011;3168;51.684;6.954;2023-02-15T07:23:57;4.60;;;4.30;;
6269;SDS011;3168;51.684;6.954;2023-02-15T07:26:23;3.00;;;2.80;;
6269;SDS011;3168;51.684;6.954;2023-02-15T07:28:49;5.87;;;4.90;;
6269;SDS011;3168;51.684;6.954;2023-02-15T07:31:15;5.23;;;4.73;;
6269;SDS011;3168;51.684;6.954;2023-02-15T07:33:41;6.07;;;4.57;;
6269;SDS011;3168;51.684;6.954;2023-02-15T07:36:07;6.10;;;5.13;;
6269;SDS011;3168;51.684;6.954;2023-02-15T07:38:34;7.40;;;5.07;;
6269;SDS011;3168;51.684;6.954;2023-02-15T07:41:00;10.00;;;4.57;;
6269;SDS011;3168;51.684;6.954;2023-02-15T07:43:26;5.70;;;5.40;;
6269;SDS011;3168;51.684;6.954;2023-02-15T07:45:51;7.23;;;4.70;;
6269;SDS011;3168;51.684;6.954;2023-02-15T07:48:17;9.87;;;7.50;;
6269;SDS011;3168;51.684;6.954;2023-02-15T07:50:43;11.00;;;7.53;;
6269;SDS011;3168;51.684;6.954;2023-02-15T07:53:09;7.07;;;6.37;;
6269;SDS011;3168;51.684;6.954;2023-02-15T07:55:35;5.73;;;4.30;;
6269;SDS011;3168;51.684;6.954;2023-02-15T07:58:01;12.17;;;6.70;;
6269;SDS011;3168;51.684;6.954;2023-02-15T08:00:26;6.43;;;5.83;;
6269;SDS011;3168;51.684;6.954;2023-02-15T08:02:53;14.73;;;4.87;;
6269;SDS011;3168;51.684;6.954;2023-02-15T08:05:25;4.83;;;4.63;;
6269;SDS011;3168;51.684;6.954;2023-02-15T08:07:51;5.83;;;5.33;;
6269;SDS011;3168;51.684;6.954;2023-02-15T08:10:17;6.93;;;6.23;;
6269;SDS011;3168;51.684;6.954;2023-02-15T08:12:43;10.53;;;5.60;;
6269;SDS011;3168;51.684;6.954;2023-02-15T08:15:09;11.13;;;6.57;;
6269;SDS011;3168;51.684;6.954;2023-02-15T08:17:36;14.23;;;5.97;;
6269;SDS011;3168;51.684;6.954;2023-02-15T08:20:01;10.80;;;6.13;;
6269;SDS011;3168;51.684;6.954;2023-02-15T08:22:27;11.53;;;7.70;;
6269;SDS011;3168;51.684;6.954;2023-02-15T08:24:53;5.47;;;5.03;;
6269;SDS011;3168;51.684;6.954;2023-02-15T08:27:20;6.60;;;4.43;;
6269;SDS011;3168;51.684;6.954;2023-02-15T08:29:46;5.37;;;4.97;;
6269;SDS011;3168;51.684;6.954;2023-02-15T08:32:12;11.70;;;7.00;;
6269;SDS011;3168;51.684;6.954;2023-02-15T08:34:39;10.27;;;6.40;;
6269;SDS011;3168;51.684;6.954;2023-02-15T08:37:04;14.43;;;6.83;;
6269;SDS011;3168;51.684;6.954;2023-02-15T08:39:30;14.47;;;5.50;;
6269;SDS011;3168;51.684;6.954;2023-02-15T08:41:56;6.83;;;6.23;;
6269;SDS011;3168;51.684;6.954;2023-02-15T08:44:22;4.60;;;4.40;;
6269;SDS011;3168;51.684;6.954;2023-02-15T08:46:48;12.80;;;8.23;;
6269;SDS011;3168;51.684;6.954;2023-02-15T08:49:15;12.30;;;9.50;;
6269;SDS011;3168;51.684;6.954;2023-02-15T08:51:40;8.30;;;7.60;;
6269;SDS011;3168;51.684;6.954;2023-02-15T08:54:07;9.00;;;7.70;;
6269;SDS011;3168;51.684;6.954;2023-02-15T08:56:33;18.17;;;12.47;;
6269;SDS011;3168;51.684;6.954;2023-02-15T08:58:58;7.57;;;6.87;;
6269;SDS011;3168;51.684;6.954;2023-02-15T09:01:25;9.13;;;7.40;;
6269;SDS011;3168;51.684;6.954;2023-02-15T09:03:51;13.07;;;9.17;;
6269;SDS011;3168;51.684;6.954;2023-02-15T09:06:16;16.23;;;10.63;;
6269;SDS011;3168;51.684;6.954;2023-02-15T09:08:42;10.40;;;9.37;;
6269;SDS011;3168;51.684;6.954;2023-02-15T09:11:09;15.50;;;8.07;;
6269;SDS011;3168;51.684;6.954;2023-02-15T09:13:34;20.10;;;10.37;;
6269;SDS011;3168;51.684;6.954;2023-02-15T09:16:01;11.70;;;8.20;;
6269;SDS011;3168;51.684;6.954;2023-02-15T09:18:27;9.63;;;8.57;;
6269;SDS011;3168;51.684;6.954;2023-02-15T09:20:53;13.15;;;9.43;;
6269;SDS011;3168;51.684;6.954;2023-02-15T09:23:18;9.07;;;8.17;;
6269;SDS011;3168;51.684;6.954;2023-02-15T09:25:44;11.77;;;8.07;;
6269;SDS011;3168;51.684;6.954;2023-02-15T09:28:10;16.93;;;10.83;;
6269;SDS011;3168;51.684;6.954;2023-02-15T09:30:36;15.37;;;11.40;;
6269;SDS011;3168;51.684;6.954;2023-02-15T09:33:02;13.83;;;11.67;;
6269;SDS011;3168;51.684;6.954;2023-02-15T09:35:28;23.80;;;11.30;;
6269;SDS011;3168;51.684;6.954;2023-02-15T09:37:53;13.63;;;9.20;;
6269;SDS011;3168;51.684;6.954;2023-02-15T09:40:19;30.20;;;12.40;;
6269;SDS011;3168;51.684;6.954;2023-02-15T09:45:22;26.10;;;12.90;;
6269;SDS011;3168;51.684;6.954;2023-02-15T09:48:06;16.80;;;11.50;;
6269;SDS011;3168;51.684;6.954;2023-02-15T09:50:39;18.70;;;11.40;;
6269;SDS011;3168;51.684;6.954;2023-02-15T09:53:14;30.37;;;10.97;;
6269;SDS011;3168;51.684;6.954;2023-02-15T09:55:44;14.77;;;10.90;;
6269;SDS011;3168;51.684;6.954;2023-02-15T09:58:17;19.33;;;12.60;;
6269;SDS011;3168;51.684;6.954;2023-02-15T10:01:17;22.27;;;12.00;;
6269;SDS011;3168;51.684;6.954;2023-02-15T10:03:54;13.47;;;10.00;;
6269;SDS011;3168;51.684;6.954;2023-02-15T10:06:32;12.60;;;10.90;;
6269;SDS011;3168;51.684;6.954;2023-02-15T10:09:27;20.53;;;12.87;;
6269;SDS011;3168;51.684;6.954;2023-02-15T10:12:16;18.20;;;11.40;;
6269;SDS011;3168;51.684;6.954;2023-02-15T10:14:48;24.80;;;12.00;;
6269;SDS011;3168;51.684;6.954;2023-02-15T10:17:46;17.77;;;11.27;;
6269;SDS011;3168;51.684;6.954;2023-02-15T10:20:17;18.87;;;12.00;;
6269;SDS011;3168;51.684;6.954;2023-02-15T10:23:57;18.10;;;12.37;;
6269;SDS011;3168;51.684;6.954;2023-02-15T10:25:52;22.48;;;11.85;;
6269;SDS011;3168;51.684;6.954;2023-02-15T10:28:30;22.40;;;13.73;;
6269;SDS011;3168;51.684;6.954;2023-02-15T10:30:50;23.50;;;14.00;;
6269;SDS011;3168;51.684;6.954;2023-02-15T10:33:37;23.63;;;12.07;;
6269;SDS011;3168;51.684;6.954;2023-02-15T10:39:07;19.57;;;12.20;;
6269;SDS011;3168;51.684;6.954;2023-02-15T10:41:51;19.57;;;11.70;;
6269;SDS011;3168;51.684;6.954;2023-02-15T10:44:40;17.27;;;10.67;;
6269;SDS011;3168;51.684;6.954;2023-02-15T10:47:13;20.00;;;12.20;;
6269;SDS011;3168;51.684;6.954;2023-02-15T10:49:55;17.27;;;11.57;;
6269;SDS011;3168;51.684;6.954;2023-02-15T10:52:29;20.07;;;12.30;;
6269;SDS011;3168;51.684;6.954;2023-02-15T10:55:02;25.60;;;11.33;;
6269;SDS011;3168;51.684;6.954;2023-02-15T11:01:05;20.50;;;10.33;;
6269;SDS011;3168;51.684;6.954;2023-02-15T11:03:16;34.43;;;10.47;;
6269;SDS011;3168;51.684;6.954;2023-02-15T11:05:42;15.23;;;9.10;;
6269;SDS011;3168;51.684;6.954;2023-02-15T11:08:10;19.63;;;10.50;;
6269;SDS011;3168;51.684;6.954;2023-02-15T11:10:38;14.67;;;9.90;;
6269;SDS011;3168;51.684;6.954;2023-02-15T11:13:05;19.00;;;11.70;;
6269;SDS011;3168;51.684;6.954;2023-02-15T11:15:36;14.00;;;8.93;;
6269;SDS011;3168;51.684;6.954;2023-02-15T11:18:08;12.37;;;8.37;;
6269;SDS011;3168;51.684;6.954;2023-02-15T11:20:36;23.73;;;9.43;;
6269;SDS011;3168;51.684;6.954;2023-02-15T11:23:00;8.60;;;6.10;;
6269;SDS011;3168;51.684;6.954;2023-02-15T11:25:30;20.00;;;9.53;;
6269;SDS011;3168;51.684;6.954;2023-02-15T11:27:54;19.40;;;8.37;;
6269;SDS011;3168;51.684;6.954;2023-02-15T11:30:22;11.17;;;8.10;;
6269;SDS011;3168;51.684;6.954;2023-02-15T11:32:48;13.63;;;8.17;;
6269;SDS011;3168;51.684;6.954;2023-02-15T11:35:22;28.40;;;9.57;;
6269;SDS011;3168;51.684;6.954;2023-02-15T11:37:58;11.37;;;7.53;;
6269;SDS011;3168;51.684;6.954;2023-02-15T11:40:53;13.90;;;7.93;;
6269;SDS011;3168;51.684;6.954;2023-02-15T11:44:26;17.07;;;7.90;;
6269;SDS011;3168;51.684;6.954;2023-02-15T11:46:00;10.00;;;7.10;;
6269;SDS011;3168;51.684;6.954;2023-02-15T11:48:26;18.07;;;7.90;;
6269;SDS011;3168;51.684;6.954;2023-02-15T11:50:51;23.90;;;8.63;;
6269;SDS011;3168;51.684;6.954;2023-02-15T11:53:18;15.00;;;8.90;;
6269;SDS011;3168;51.684;6.954;2023-02-15T11:55:43;11.67;;;6.77;;
6269;SDS011;3168;51.684;6.954;2023-02-15T12:00:42;9.63;;;6.80;;
6269;SDS011;3168;51.684;6.954;2023-02-15T12:03:43;16.73;;;9.30;;
6269;SDS011;3168;51.684;6.954;2023-02-15T12:05:52;12.30;;;8.27;;
6269;SDS011;3168;51.684;6.954;2023-02-15T12:08:17;7.83;;;7.03;;
6269;SDS011;3168;51.684;6.954;2023-02-15T12:10:51;11.67;;;7.13;;
6269;SDS011;3168;51.684;6.954;2023-02-15T12:13:17;13.50;;;7.47;;
6269;SDS011;3168;51.684;6.954;2023-02-15T12:15:43;11.63;;;6.70;;
6269;SDS011;3168;51.684;6.954;2023-02-15T12:18:17;23.47;;;8.93;;
6269;SDS011;3168;51.684;6.954;2023-02-15T12:20:40;7.60;;;6.80;;
6269;SDS011;3168;51.684;6.954;2023-02-15T12:23:11;7.23;;;6.43;;
6269;SDS011;3168;51.684;6.954;2023-02-15T12:28:22;18.30;;;8.63;;
6269;SDS011;3168;51.684;6.954;2023-02-15T12:30:45;7.90;;;6.23;;
6269;SDS011;3168;51.684;6.954;2023-02-15T12:33:14;14.30;;;7.50;;
6269;SDS011;3168;51.684;6.954;2023-02-15T12:35:39;15.57;;;6.50;;
6269;SDS011;3168;51.684;6.954;2023-02-15T12:40:57;16.60;;;6.77;;
6269;SDS011;3168;51.684;6.954;2023-02-15T12:43:25;13.10;;;8.17;;
6269;SDS011;3168;51.684;6.954;2023-02-15T12:45:51;16.07;;;5.90;;
6269;SDS011;3168;51.684;6.954;2023-02-15T12:48:18;19.63;;;7.23;;
6269;SDS011;3168;51.684;6.954;2023-02-15T12:50:50;9.37;;;6.57;;
6269;SDS011;3168;51.684;6.954;2023-02-15T12:53:33;11.87;;;7.77;;
6269;SDS011;3168;51.684;6.954;2023-02-15T12:56:00;15.10;;;6.07;;
6269;SDS011;3168;51.684;6.954;2023-02-15T12:58:26;11.07;;;6.70;;
6269;SDS011;3168;51.684;6.954;2023-02-15T13:03:54;11.27;;;6.57;;
6269;SDS011;3168;51.684;6.954;2023-02-15T13:06:04;11.03;;;7.37;;
6269;SDS011;3168;51.684;6.954;2023-02-15T13:08:31;8.00;;;5.97;;
6269;SDS011;3168;51.684;6.954;2023-02-15T13:10:57;8.80;;;6.77;;
6269;SDS011;3168;51.684;6.954;2023-02-15T13:13:25;18.50;;;8.00;;
6269;SDS011;3168;51.684;6.954;2023-02-15T13:15:51;12.77;;;6.83;;
6269;SDS011;3168;51.684;6.954;2023-02-15T13:18:17;10.97;;;7.57;;
6269;SDS011;3168;51.684;6.954;2023-02-15T13:20:41;14.83;;;7.60;;
6269;SDS011;3168;51.684;6.954;2023-02-15T13:23:16;13.07;;;7.40;;
6269;SDS011;3168;51.684;6.954;2023-02-15T13:25:40;14.97;;;7.47;;
6269;SDS011;3168;51.684;6.954;2023-02-15T13:28:03;18.43;;;7.93;;
6269;SDS011;3168;51.684;6.954;2023-02-15T13:30:31;8.47;;;6.13;;
6269;SDS011;3168;51.684;6.954;2023-02-15T13:32:56;15.20;;;7.13;;
6269;SDS011;3168;51.684;6.954;2023-02-15T13:35:21;11.87;;;6.27;;
6269;SDS011;3168;51.684;6.954;2023-02-15T13:37:51;22.13;;;9.00;;
6269;SDS011;3168;51.684;6.954;2023-02-15T13:40:21;11.77;;;7.90;;
6269;SDS011;3168;51.684;6.954;2023-02-15T13:42:54;15.10;;;7.33;;
6269;SDS011;3168;51.684;6.954;2023-02-15T13:50:48;14.73;;;8.50;;
6269;SDS011;3168;51.684;6.954;2023-02-15T13:53:54;14.17;;;7.33;;
6269;SDS011;3168;51.684;6.954;2023-02-15T13:56:36;18.20;;;7.50;;
6269;SDS011;3168;51.684;6.954;2023-02-15T13:59:16;15.23;;;7.40;;
6269;SDS011;3168;51.684;6.954;2023-02-15T14:01:50;22.93;;;8.00;;
6269;SDS011;3168;51.684;6.954;2023-02-15T14:07:24;13.90;;;6.80;;
6269;SDS011;3168;51.684;6.954;2023-02-15T14:10:14;12.93;;;7.80;;
6269;SDS011;3168;51.684;6.954;2023-02-15T14:12:41;9.70;;;5.90;;
6269;SDS011;3168;51.684;6.954;2023-02-15T14:15:14;18.97;;;5.67;;
6269;SDS011;3168;51.684;6.954;2023-02-15T14:18:16;17.73;;;7.00;;
6269;SDS011;3168;51.684;6.954;2023-02-15T14:20:50;10.40;;;6.50;;
6269;SDS011;3168;51.684;6.954;2023-02-15T14:23:52;15.63;;;7.20;;
6269;SDS011;3168;51.684;6.954;2023-02-15T14:26:00;13.67;;;6.97;;
6269;SDS011;3168;51.684;6.954;2023-02-15T14:28:31;13.93;;;6.47;;
6269;SDS011;3168;51.684;6.954;2023-02-15T14:30:54;18.53;;;7.47;;
6269;SDS011;3168;51.684;6.954;2023-02-15T14:33:25;15.83;;;7.87;;
6269;SDS011;3168;51.684;6.954;2023-02-15T14:35:57;11.30;;;6.53;;
6269;SDS011;3168;51.684;6.954;2023-02-15T14:38:36;16.67;;;6.90;;
6269;SDS011;3168;51.684;6.954;2023-02-15T14:41:09;13.33;;;7.30;;
6269;SDS011;3168;51.684;6.954;2023-02-15T14:43:43;17.47;;;7.77;;
6269;SDS011;3168;51.684;6.954;2023-02-15T14:48:53;10.83;;;6.23;;
6269;SDS011;3168;51.684;6.954;2023-02-15T14:53:55;10.77;;;6.53;;
6269;SDS011;3168;51.684;6.954;2023-02-15T14:56:21;16.63;;;6.70;;
6269;SDS011;3168;51.684;6.954;2023-02-15T14:58:57;10.23;;;5.80;;
6269;SDS011;3168;51.684;6.954;2023-02-15T15:01:25;20.17;;;6.60;;
6269;SDS011;3168;51.684;6.954;2023-02-15T15:03:52;17.40;;;8.10;;
6269;SDS011;3168;51.684;6.954;2023-02-15T15:06:28;11.17;;;7.63;;
6269;SDS011;3168;51.684;6.954;2023-02-15T15:08:55;12.50;;;7.80;;
6269;SDS011;3168;51.684;6.954;2023-02-15T15:11:43;8.87;;;6.90;;
6269;SDS011;3168;51.684;6.954;2023-02-15T15:14:08;15.57;;;7.57;;
6269;SDS011;3168;51.684;6.954;2023-02-15T15:22:05;15.83;;;8.43;;
6269;SDS011;3168;51.684;6.954;2023-02-15T15:24:52;16.20;;;7.90;;
6269;SDS011;3168;51.684;6.954;2023-02-15T15:29:58;12.50;;;6.37;;
6269;SDS011;3168;51.684;6.954;2023-02-15T15:32:25;14.00;;;7.40;;
6269;SDS011;3168;51.684;6.954;2023-02-15T15:34:54;9.17;;;6.90;;
6269;SDS011;3168;51.684;6.954;2023-02-15T15:37:35;15.53;;;7.30;;
6269;SDS011;3168;51.684;6.954;2023-02-15T15:40:11;10.60;;;6.97;;
6269;SDS011;3168;51.684;6.954;2023-02-15T15:42:49;13.97;;;6.70;;
6269;SDS011;3168;51.684;6.954;2023-02-15T15:45:38;15.43;;;7.53;;
6269;SDS011;3168;51.684;6.954;2023-02-15T15:48:19;19.60;;;8.93;;
6269;SDS011;3168;51.684;6.954;2023-02-15T15:50:40;10.97;;;6.80;;
6269;SDS011;3168;51.684;6.954;2023-02-15T15:53:05;22.77;;;8.33;;
6269;SDS011;3168;51.684;6.954;2023-02-15T15:55:31;8.77;;;7.40;;
6269;SDS011;3168;51.684;6.954;2023-02-15T15:57:59;16.77;;;7.20;;
6269;SDS011;3168;51.684;6.954;2023-02-15T16:00:35;19.30;;;6.80;;
6269;SDS011;3168;51.684;6.954;2023-02-15T16:03:15;9.70;;;6.20;;
6269;SDS011;3168;51.684;6.954;2023-02-15T16:05:40;17.70;;;8.47;;
6269;SDS011;3168;51.684;6.954;2023-02-15T16:08:06;15.03;;;7.17;;